Bayfield, CO

9:41 AM MST on January 31, 2015 (GMT -0700)
Wolf Creek Pass | Change Station
CLOSE
Current Station
Airport
Location: Wolf Creek Pass,
Elevation: 11759 ft
Nearby Weather Stations
Active Advisory: Winter Weather Advisory Active Notice: Local Storm Report

Elev 11759 ft 37.45 °N, 106.80 °W | Updated 6 minutes ago

Overcast
Overcast
23 °F
Feels Like 15 °F
N
7
Wind Variable Wind from SSW

Today
High -- | Low -- °F
--% Chance of Precip.
Yesterday
High -- | Low -- °F
Precip. -- in
7:14 AM 5:33 PM
Waxing Gibbous, 90% visible
Pressure 29.95 in
Visibility 0.5 miles
Clouds Mostly Cloudy 100 ft
Overcast 700 ft
Windchill 15 °F
Dew Point 23 °F
Humidity 100%
Rainfall 0.06 in
Snow Depth Not available.
UV 1 out of 12
Pollen .20 out of 12
Air Quality Not available.
Flu Activity Not available.
METAR KCPW 311635Z AUTO 21006KT 1/2SM FZFG BKN001 OVC007 M05/M05 A2995 RMK AO2

More Conditions Fewer Conditions

Pressure 29.95 in
Visibility 0.5 miles
Clouds Mostly Cloudy 100 ft
Overcast 700 ft
Windchill 15 °F
Dew Point 23 °F
Humidity 100%
Rainfall 0.06 in
Snow Depth Not available.
UV 1 out of 12
Pollen .20 out of 12
Air Quality Not available.
Flu Activity Not available.
METAR KCPW 311635Z AUTO 21006KT 1/2SM FZFG BKN001 OVC007 M05/M05 A2995 RMK AO2

More Conditions Fewer Conditions

10-Day Weather Forecast

Almanac

Astronomy

Jan. 31, 2015 Rise Set
Actual Time
Civil Twilight
Nautical Twilight
Astronomical Twilight
Moon
Length of Visible Light
Length of Day
Tomorrow will be .
, % of the Moon is Illuminated

Today's Extremes

State Highs State Lows

Community

WunderPhotos

Upload Photos

1,792,105 photos uploaded!

WunderBlogs® & News

Nearby

Air Quality

  Air Quality AQ Index Pollutant
Not available.

Snow Depth

Station Depth Elevation

Earthquake Activity

City Distance Mag. Time & Date
Minimum magnitude displayed is 2.5.

Coastal Water Temperatures

Place Temperature

Nearby Weather Stations